createdAt,value
2019-03-29T00:00:14.713Z,46.30
2019-03-29T00:02:43.099Z,46.20
2019-03-29T00:05:11.610Z,46.20
2019-03-29T00:07:41.833Z,46.20
2019-03-29T00:10:09.856Z,46.20
2019-03-29T00:12:38.141Z,46.20
2019-03-29T00:15:07.363Z,46.30
2019-03-29T00:17:36.408Z,46.20
2019-03-29T00:20:07.550Z,46.20
2019-03-29T00:22:35.789Z,46.20
2019-03-29T00:25:04.069Z,46.20
2019-03-29T00:27:32.322Z,46.10
2019-03-29T00:30:00.709Z,46.20
2019-03-29T00:32:29.112Z,46.00
2019-03-29T00:34:57.401Z,46.00
2019-03-29T00:37:25.648Z,46.10
2019-03-29T00:39:53.908Z,46.10
2019-03-29T00:42:22.172Z,46.10
2019-03-29T00:44:50.438Z,45.90
2019-03-29T00:47:18.700Z,46.00
2019-03-29T00:49:47.116Z,45.90
2019-03-29T00:52:16.818Z,45.90
2019-03-29T00:54:45.400Z,46.00
2019-03-29T00:57:13.683Z,46.00
2019-03-29T00:59:41.936Z,45.90
2019-03-29T01:02:10.548Z,45.90
2019-03-29T01:04:38.791Z,46.00
2019-03-29T01:07:07.145Z,46.00
2019-03-29T01:09:35.455Z,45.90
2019-03-29T01:12:03.725Z,46.00
2019-03-29T01:14:31.995Z,46.00
2019-03-29T01:17:00.252Z,45.90
2019-03-29T01:19:29.216Z,46.00
2019-03-29T01:21:58.147Z,45.90
2019-03-29T01:24:26.450Z,45.90
2019-03-29T01:26:54.716Z,45.40
2019-03-29T01:29:22.965Z,45.90
2019-03-29T01:31:51.257Z,45.90
2019-03-29T01:34:20.492Z,46.00
2019-03-29T01:36:48.781Z,45.90
2019-03-29T01:39:17.238Z,45.90
2019-03-29T01:41:45.571Z,45.90
2019-03-29T01:44:13.838Z,46.00
2019-03-29T01:46:42.100Z,45.90
2019-03-29T01:49:10.327Z,45.80
2019-03-29T01:51:38.693Z,45.90
2019-03-29T01:54:06.967Z,45.90
2019-03-29T01:56:35.224Z,45.90
2019-03-29T01:59:03.536Z,45.90
2019-03-29T02:01:31.769Z,46.00
2019-03-29T02:04:00.297Z,45.90
2019-03-29T02:06:28.765Z,45.90
2019-03-29T02:08:57.018Z,45.80
2019-03-29T02:11:25.292Z,45.80
2019-03-29T02:13:53.549Z,45.80
2019-03-29T02:16:22.439Z,45.70
2019-03-29T02:18:50.714Z,45.80
2019-03-29T02:21:19.040Z,45.90
2019-03-29T02:23:47.320Z,45.80
2019-03-29T02:26:15.607Z,45.80
2019-03-29T02:28:44.846Z,45.90
2019-03-29T02:31:13.307Z,45.80
2019-03-29T02:33:41.631Z,45.80
2019-03-29T02:36:09.895Z,45.80
2019-03-29T02:38:54.137Z,45.80
2019-03-29T02:41:08.179Z,45.70
2019-03-29T02:43:36.542Z,45.70
2019-03-29T02:46:05.985Z,45.90
2019-03-29T02:48:34.237Z,45.80
2019-03-29T02:51:04.509Z,45.90
2019-03-29T02:53:32.783Z,45.80
2019-03-29T02:56:01.037Z,45.80
2019-03-29T02:58:29.307Z,45.80
2019-03-29T03:00:57.737Z,45.70
2019-03-29T03:03:26.046Z,45.80
2019-03-29T03:05:54.549Z,45.70
2019-03-29T03:08:22.899Z,46.30
2019-03-29T03:10:51.132Z,45.80
2019-03-29T03:13:19.407Z,45.70
2019-03-29T03:15:47.675Z,45.80
2019-03-29T03:18:15.943Z,45.80
2019-03-29T03:20:44.214Z,45.80
2019-03-29T03:23:12.485Z,45.80
2019-03-29T03:25:40.734Z,45.80
2019-03-29T03:28:09.012Z,45.80
2019-03-29T03:30:37.298Z,45.80
2019-03-29T03:33:05.627Z,45.90
2019-03-29T03:35:33.964Z,45.90
2019-03-29T03:38:02.254Z,45.90
2019-03-29T03:40:30.595Z,45.90
2019-03-29T03:42:58.853Z,45.90
2019-03-29T03:45:27.112Z,45.80
2019-03-29T03:47:55.389Z,45.80
2019-03-29T03:50:40.672Z,45.80
2019-03-29T03:53:09.692Z,45.70
2019-03-29T03:55:40.850Z,45.90
2019-03-29T03:58:09.969Z,45.80
2019-03-29T04:00:44.422Z,45.70
2019-03-29T04:03:12.684Z,45.80
2019-03-29T04:05:40.921Z,45.70
2019-03-29T04:08:09.156Z,45.80
2019-03-29T04:10:41.939Z,45.70
2019-03-29T04:13:07.393Z,45.70
2019-03-29T04:15:35.763Z,45.80
2019-03-29T04:18:04.091Z,45.80
2019-03-29T04:20:32.447Z,45.70
2019-03-29T04:23:00.683Z,45.60
2019-03-29T04:25:28.962Z,45.70
2019-03-29T04:27:57.209Z,45.70
2019-03-29T04:30:25.797Z,46.40
2019-03-29T04:32:54.037Z,45.70
2019-03-29T04:35:22.291Z,45.60
2019-03-29T04:37:50.591Z,45.60
2019-03-29T04:40:18.833Z,45.60
2019-03-29T04:42:47.098Z,45.60
2019-03-29T04:45:15.372Z,45.70
2019-03-29T04:47:43.622Z,45.60
2019-03-29T04:50:12.380Z,45.60
2019-03-29T04:52:40.711Z,45.60
2019-03-29T04:55:08.993Z,45.60
2019-03-29T04:57:37.453Z,45.70
2019-03-29T05:00:06.658Z,45.60
2019-03-29T05:02:35.050Z,45.60
2019-03-29T05:05:04.480Z,45.70
2019-03-29T05:07:32.721Z,45.60
2019-03-29T05:10:00.988Z,45.70
2019-03-29T05:12:29.236Z,45.60
2019-03-29T05:14:57.640Z,45.60
2019-03-29T05:17:25.903Z,45.60
2019-03-29T05:19:54.204Z,45.60
2019-03-29T05:22:22.522Z,45.60
2019-03-29T05:24:50.808Z,45.60
2019-03-29T05:27:19.102Z,45.60
2019-03-29T05:29:47.352Z,45.60
2019-03-29T05:32:15.608Z,45.60
2019-03-29T05:34:44.025Z,45.60
2019-03-29T05:37:12.308Z,45.60
2019-03-29T05:39:40.734Z,45.60
2019-03-29T05:42:09.195Z,45.50
2019-03-29T05:44:40.623Z,45.50
2019-03-29T05:47:07.643Z,45.70
2019-03-29T05:49:35.863Z,45.50
2019-03-29T05:52:04.246Z,45.70
2019-03-29T05:54:32.588Z,45.60
2019-03-29T05:57:00.824Z,45.90
2019-03-29T05:59:29.206Z,45.90
2019-03-29T06:01:57.487Z,45.90
2019-03-29T06:04:25.840Z,46.00
2019-03-29T06:06:54.124Z,46.00
2019-03-29T06:09:22.529Z,46.10
2019-03-29T06:11:50.769Z,46.10
2019-03-29T06:14:19.085Z,46.10
2019-03-29T06:16:47.302Z,46.10
2019-03-29T06:19:15.630Z,46.20
2019-03-29T06:21:43.855Z,46.10
2019-03-29T06:24:12.079Z,46.20
2019-03-29T06:26:40.447Z,46.20
2019-03-29T06:29:08.703Z,46.30
2019-03-29T06:31:36.983Z,46.50
2019-03-29T06:34:05.257Z,47.00
2019-03-29T06:36:33.535Z,47.40
2019-03-29T06:39:01.937Z,47.10
2019-03-29T06:41:30.201Z,47.40
2019-03-29T06:43:58.475Z,47.80
2019-03-29T06:46:26.807Z,47.70
2019-03-29T06:48:55.114Z,47.50
2019-03-29T06:51:23.346Z,47.90
2019-03-29T06:53:52.687Z,47.50
2019-03-29T06:56:21.273Z,47.50
2019-03-29T06:58:49.496Z,47.30
2019-03-29T07:01:17.730Z,47.90
2019-03-29T07:03:45.939Z,47.50
2019-03-29T07:06:14.176Z,47.50
2019-03-29T07:08:42.432Z,47.20
2019-03-29T07:11:17.329Z,47.10
2019-03-29T07:13:40.642Z,47.00
2019-03-29T07:16:08.900Z,46.90
2019-03-29T07:18:37.117Z,47.10
2019-03-29T07:21:05.342Z,47.00
2019-03-29T07:23:33.653Z,47.00
2019-03-29T07:26:01.886Z,42.30
2019-03-29T07:28:30.126Z,57.20
2019-03-29T07:30:58.367Z,63.20
2019-03-29T07:33:26.742Z,68.60
2019-03-29T07:35:55.132Z,68.00
2019-03-29T07:38:23.395Z,67.70
2019-03-29T07:40:51.772Z,68.10
2019-03-29T07:43:20.099Z,67.10
2019-03-29T07:45:48.331Z,66.80
2019-03-29T07:48:16.556Z,66.30
2019-03-29T07:50:44.789Z,68.60
2019-03-29T07:53:13.028Z,67.30
2019-03-29T07:55:41.331Z,64.80
2019-03-29T07:58:09.575Z,64.10
2019-03-29T08:00:37.843Z,65.20
2019-03-29T08:03:06.087Z,64.70
2019-03-29T08:05:35.454Z,65.10
2019-03-29T08:08:03.954Z,64.10
2019-03-29T08:10:32.334Z,64.80
2019-03-29T08:13:00.739Z,65.10
2019-03-29T08:15:28.969Z,65.70
2019-03-29T08:18:01.136Z,64.10
2019-03-29T08:20:44.527Z,64.30
2019-03-29T08:22:57.595Z,64.50
2019-03-29T08:25:25.832Z,64.40
2019-03-29T08:27:54.164Z,64.30
2019-03-29T08:30:22.387Z,64.60
2019-03-29T08:32:50.654Z,62.90
2019-03-29T08:35:19.031Z,63.60
2019-03-29T08:37:47.254Z,62.70
2019-03-29T08:40:15.523Z,62.20
2019-03-29T08:42:44.144Z,62.60
2019-03-29T08:45:12.445Z,61.70
2019-03-29T08:47:40.777Z,61.20
2019-03-29T08:50:09.305Z,60.70
2019-03-29T08:52:37.703Z,60.80
2019-03-29T08:55:06.609Z,61.20
2019-03-29T08:57:34.829Z,61.00
2019-03-29T09:00:05.068Z,60.70
2019-03-29T09:02:33.318Z,60.80
2019-03-29T09:05:01.919Z,60.00
2019-03-29T09:07:43.618Z,60.00
2019-03-29T09:10:00.411Z,60.20
2019-03-29T09:12:28.711Z,60.70
2019-03-29T09:14:56.939Z,60.10
2019-03-29T09:17:25.249Z,60.10
2019-03-29T09:19:53.524Z,59.90
2019-03-29T09:22:21.757Z,59.40
2019-03-29T09:24:50.925Z,59.20
2019-03-29T09:27:19.182Z,60.00
2019-03-29T09:29:47.450Z,59.60
2019-03-29T09:32:15.702Z,59.60
2019-03-29T09:34:43.946Z,59.00
2019-03-29T09:37:12.275Z,59.20
2019-03-29T09:39:40.677Z,59.00
2019-03-29T09:42:09.790Z,59.20
2019-03-29T09:44:38.350Z,58.60
2019-03-29T09:47:06.601Z,58.90
2019-03-29T09:49:34.853Z,59.10
2019-03-29T09:52:03.080Z,58.70
2019-03-29T09:54:31.394Z,58.10
2019-03-29T09:56:59.686Z,58.00
2019-03-29T09:59:27.909Z,57.20
2019-03-29T10:01:56.139Z,58.00
2019-03-29T10:04:24.360Z,57.50
2019-03-29T10:06:52.694Z,56.40
2019-03-29T10:09:20.920Z,56.40
2019-03-29T10:11:49.188Z,56.70
2019-03-29T10:14:17.426Z,55.30
2019-03-29T10:16:45.839Z,55.90
2019-03-29T10:19:14.064Z,55.90
2019-03-29T10:21:42.312Z,55.60
2019-03-29T10:24:10.551Z,56.40
2019-03-29T10:26:38.811Z,55.70
2019-03-29T10:29:07.048Z,54.90
2019-03-29T10:31:35.290Z,55.10
2019-03-29T10:34:03.539Z,55.50
2019-03-29T10:36:31.787Z,55.20
2019-03-29T10:39:00.026Z,54.60
2019-03-29T10:41:28.264Z,54.10
2019-03-29T10:43:56.836Z,54.00
2019-03-29T10:46:25.072Z,54.40
2019-03-29T10:48:53.328Z,54.00
2019-03-29T10:51:21.683Z,53.50
2019-03-29T10:53:49.912Z,53.20
2019-03-29T10:56:18.157Z,53.00
2019-03-29T10:58:46.391Z,52.70
2019-03-29T11:01:14.627Z,52.20
2019-03-29T11:03:42.859Z,51.70
2019-03-29T11:06:11.154Z,52.70
2019-03-29T11:08:39.385Z,52.30
2019-03-29T11:11:07.701Z,52.60
2019-03-29T11:13:35.953Z,52.50
2019-03-29T11:16:04.180Z,52.70
2019-03-29T11:18:32.432Z,54.50
2019-03-29T11:21:00.751Z,55.50
2019-03-29T11:23:29.231Z,52.70
2019-03-29T11:25:57.454Z,52.60
2019-03-29T11:28:25.714Z,53.00
2019-03-29T11:30:53.957Z,51.30
2019-03-29T11:33:22.239Z,50.90
2019-03-29T11:35:50.629Z,51.00
2019-03-29T11:38:18.853Z,52.90
2019-03-29T11:40:47.483Z,52.00
2019-03-29T11:43:26.439Z,50.50
2019-03-29T11:45:45.879Z,50.70
2019-03-29T11:48:14.163Z,49.90
2019-03-29T11:50:42.423Z,51.10
2019-03-29T11:53:10.809Z,49.00
2019-03-29T11:55:39.044Z,49.70
2019-03-29T11:58:07.276Z,49.90
2019-03-29T12:00:36.421Z,49.00
2019-03-29T12:03:09.411Z,48.80
2019-03-29T12:05:37.524Z,51.10
2019-03-29T12:08:05.747Z,49.20
2019-03-29T12:10:34.282Z,49.20
2019-03-29T12:13:02.519Z,48.00
2019-03-29T12:15:30.801Z,48.10
2019-03-29T12:17:59.059Z,49.60
2019-03-29T12:20:27.299Z,48.40
2019-03-29T12:22:55.595Z,48.30
2019-03-29T12:25:23.824Z,48.30
2019-03-29T12:27:52.100Z,48.40
2019-03-29T12:30:31.407Z,48.40
2019-03-29T12:32:50.595Z,47.80
2019-03-29T12:35:18.831Z,48.00
2019-03-29T12:37:47.148Z,48.00
2019-03-29T12:40:15.360Z,61.00
2019-03-29T12:42:43.636Z,62.00
2019-03-29T12:45:11.861Z,62.60
2019-03-29T12:47:40.097Z,57.80
2019-03-29T12:50:08.327Z,58.40
2019-03-29T12:52:36.571Z,54.50
2019-03-29T12:55:05.571Z,56.30
2019-03-29T12:57:33.807Z,54.20
2019-03-29T13:00:02.033Z,54.70
2019-03-29T13:02:30.272Z,52.40
2019-03-29T13:04:58.483Z,55.30
2019-03-29T13:07:26.742Z,51.50
2019-03-29T13:09:55.011Z,51.30
2019-03-29T13:12:23.304Z,50.70
2019-03-29T13:14:51.539Z,50.30
2019-03-29T13:17:19.843Z,51.20
2019-03-29T13:19:48.089Z,50.70
2019-03-29T13:22:16.596Z,51.00
2019-03-29T13:24:44.854Z,48.80
2019-03-29T13:27:13.143Z,47.70
2019-03-29T13:29:41.460Z,47.30
2019-03-29T13:32:09.703Z,48.20
2019-03-29T13:34:37.936Z,49.00
2019-03-29T13:37:06.382Z,48.50
2019-03-29T13:39:34.743Z,48.10
2019-03-29T13:42:03.003Z,46.50
2019-03-29T13:44:31.224Z,47.90
2019-03-29T13:46:59.458Z,48.60
2019-03-29T13:49:27.686Z,47.30
2019-03-29T13:51:55.928Z,47.80
2019-03-29T13:54:24.225Z,47.20
2019-03-29T13:56:52.424Z,46.80
2019-03-29T13:59:20.819Z,47.30
2019-03-29T14:01:49.041Z,47.90
2019-03-29T14:04:17.411Z,48.10
2019-03-29T14:06:45.662Z,47.20
2019-03-29T14:09:13.912Z,46.30
2019-03-29T14:11:42.122Z,46.40
2019-03-29T14:14:10.370Z,46.00
2019-03-29T14:16:38.792Z,46.30
2019-03-29T14:19:07.440Z,47.10
2019-03-29T14:21:35.638Z,46.40
2019-03-29T14:24:03.871Z,46.30
2019-03-29T14:26:32.120Z,46.20
2019-03-29T14:29:00.382Z,48.10
2019-03-29T14:31:29.529Z,45.70
2019-03-29T14:33:57.731Z,45.70
2019-03-29T14:36:25.976Z,45.50
2019-03-29T14:38:54.206Z,45.90
2019-03-29T14:41:22.450Z,46.10
2019-03-29T14:43:50.698Z,46.40
2019-03-29T14:46:18.937Z,46.40
2019-03-29T14:48:47.156Z,45.70
2019-03-29T14:51:15.449Z,45.90
2019-03-29T14:53:43.805Z,46.00
2019-03-29T14:56:12.136Z,45.50
2019-03-29T14:58:40.371Z,46.30
2019-03-29T15:01:08.599Z,45.90
2019-03-29T15:03:37.015Z,46.60
2019-03-29T15:06:05.258Z,46.60
2019-03-29T15:08:33.555Z,45.20
2019-03-29T15:11:02.298Z,45.20
2019-03-29T15:13:31.067Z,44.90
2019-03-29T15:15:59.433Z,45.20
2019-03-29T15:18:27.689Z,45.80
2019-03-29T15:20:56.080Z,46.30
2019-03-29T15:23:24.363Z,45.60
2019-03-29T15:25:52.651Z,45.80
2019-03-29T15:28:21.312Z,45.60
2019-03-29T15:30:52.269Z,45.60
2019-03-29T15:33:19.552Z,45.50
2019-03-29T15:35:47.782Z,45.00
2019-03-29T15:38:16.135Z,45.10
2019-03-29T15:40:44.907Z,45.40
2019-03-29T15:43:13.352Z,45.50
2019-03-29T15:45:41.643Z,46.20
2019-03-29T15:48:09.983Z,46.50
2019-03-29T15:50:38.236Z,46.00
2019-03-29T15:53:06.481Z,45.40
2019-03-29T15:55:34.707Z,46.10
2019-03-29T15:58:03.062Z,46.00
2019-03-29T16:00:31.355Z,47.00
2019-03-29T16:02:59.625Z,46.70
2019-03-29T16:05:27.876Z,47.50
2019-03-29T16:07:56.251Z,46.70
2019-03-29T16:10:24.504Z,46.80
2019-03-29T16:12:52.718Z,47.30
2019-03-29T16:15:33.468Z,46.80
2019-03-29T16:17:51.410Z,47.40
2019-03-29T16:20:19.722Z,47.60
2019-03-29T16:22:48.219Z,47.50
2019-03-29T16:25:16.518Z,48.30
2019-03-29T16:27:44.801Z,47.90
2019-03-29T16:30:13.272Z,47.90
2019-03-29T16:32:41.504Z,48.10
2019-03-29T16:35:09.781Z,48.60
2019-03-29T16:37:38.014Z,48.30
2019-03-29T16:40:06.879Z,49.00
2019-03-29T16:42:35.406Z,49.40
2019-03-29T16:45:04.854Z,48.70
2019-03-29T16:47:33.617Z,49.50
2019-03-29T16:50:01.829Z,49.50
2019-03-29T16:52:30.065Z,49.50
2019-03-29T16:55:11.884Z,49.30
2019-03-29T16:57:28.504Z,49.80
2019-03-29T16:59:56.785Z,49.90
2019-03-29T17:02:25.126Z,49.90
2019-03-29T17:04:53.394Z,50.50
2019-03-29T17:07:21.712Z,50.40
2019-03-29T17:09:49.999Z,51.00
2019-03-29T17:12:18.558Z,51.20
2019-03-29T17:14:46.806Z,50.90
2019-03-29T17:17:15.091Z,51.30
2019-03-29T17:19:43.414Z,51.20
2019-03-29T17:22:11.776Z,51.50
2019-03-29T17:24:40.022Z,51.80
2019-03-29T17:27:08.268Z,52.50
2019-03-29T17:29:36.522Z,52.10
2019-03-29T17:32:04.761Z,52.40
2019-03-29T17:34:33.071Z,52.60
2019-03-29T17:37:01.303Z,52.60
2019-03-29T17:39:29.680Z,53.10
2019-03-29T17:41:57.967Z,53.20
2019-03-29T17:44:27.615Z,53.30
2019-03-29T17:46:55.979Z,53.40
2019-03-29T17:49:24.284Z,53.60
2019-03-29T17:51:52.621Z,54.50
2019-03-29T17:54:21.692Z,53.90
2019-03-29T17:56:49.941Z,54.40
2019-03-29T17:59:18.537Z,54.30
2019-03-29T18:01:47.204Z,54.50
2019-03-29T18:04:15.500Z,54.50
2019-03-29T18:06:46.887Z,54.80
2019-03-29T18:09:13.765Z,55.20
2019-03-29T18:11:42.094Z,55.20
2019-03-29T18:14:10.314Z,55.00
2019-03-29T18:16:38.546Z,55.30
2019-03-29T18:19:06.831Z,55.60
2019-03-29T18:21:35.097Z,56.00
2019-03-29T18:24:03.582Z,56.20
2019-03-29T18:26:31.792Z,56.40
2019-03-29T18:29:00.219Z,56.20
2019-03-29T18:31:28.463Z,56.40
2019-03-29T18:33:56.779Z,56.90
2019-03-29T18:36:25.305Z,56.80
2019-03-29T18:38:53.520Z,56.90
2019-03-29T18:41:21.754Z,57.30
2019-03-29T18:43:50.052Z,57.50
2019-03-29T18:46:18.456Z,57.70
2019-03-29T18:48:46.705Z,58.10
2019-03-29T18:51:14.928Z,58.00
2019-03-29T18:53:43.192Z,58.20
2019-03-29T18:56:11.478Z,58.30
2019-03-29T18:58:39.910Z,58.60
2019-03-29T19:01:08.246Z,58.50
2019-03-29T19:03:36.519Z,59.40
2019-03-29T19:06:04.768Z,59.80
2019-03-29T19:08:33.078Z,59.70
2019-03-29T19:11:01.323Z,59.70
2019-03-29T19:13:29.601Z,59.70
2019-03-29T19:15:57.948Z,59.80
2019-03-29T19:18:26.247Z,59.80
2019-03-29T19:20:54.518Z,59.80
2019-03-29T19:23:22.743Z,59.80
2019-03-29T19:25:51.030Z,60.00
2019-03-29T19:28:19.425Z,60.50
2019-03-29T19:30:47.718Z,60.70
2019-03-29T19:33:16.082Z,60.90
2019-03-29T19:35:44.320Z,61.00
2019-03-29T19:38:12.648Z,61.30
2019-03-29T19:40:40.943Z,61.80
2019-03-29T19:43:09.166Z,61.90
2019-03-29T19:45:37.397Z,62.60
2019-03-29T19:48:05.725Z,62.50
2019-03-29T19:50:34.027Z,62.50
2019-03-29T19:53:02.372Z,62.60
2019-03-29T19:55:30.731Z,62.90
2019-03-29T19:57:59.099Z,63.20
2019-03-29T20:00:37.777Z,63.30
2019-03-29T20:03:06.040Z,63.50
2019-03-29T20:05:34.327Z,63.90
2019-03-29T20:08:02.560Z,63.90
2019-03-29T20:10:30.880Z,64.00
2019-03-29T20:12:59.152Z,64.40
2019-03-29T20:15:27.380Z,64.30
2019-03-29T20:17:55.711Z,64.60
2019-03-29T20:20:25.373Z,64.80
2019-03-29T20:22:54.926Z,64.80
2019-03-29T20:25:23.480Z,65.10
2019-03-29T20:27:51.699Z,65.10
2019-03-29T20:30:19.973Z,65.30
2019-03-29T20:32:48.351Z,65.90
2019-03-29T20:35:16.710Z,66.10
2019-03-29T20:37:44.954Z,66.40
2019-03-29T20:40:13.175Z,66.40
2019-03-29T20:42:41.540Z,66.80
2019-03-29T20:45:09.806Z,67.00
2019-03-29T20:47:42.445Z,67.10
2019-03-29T20:50:07.996Z,66.90
2019-03-29T20:52:36.248Z,66.90
2019-03-29T20:55:06.668Z,67.20
2019-03-29T20:57:35.093Z,67.40
2019-03-29T21:00:07.611Z,67.90
2019-03-29T21:02:35.855Z,68.00
2019-03-29T21:05:05.754Z,68.20
2019-03-29T21:07:33.976Z,68.00
2019-03-29T21:10:02.226Z,68.10
2019-03-29T21:12:30.459Z,68.50
2019-03-29T21:14:58.677Z,68.90
2019-03-29T21:17:26.918Z,69.20
2019-03-29T21:19:55.167Z,69.40
2019-03-29T21:22:23.402Z,69.20
2019-03-29T21:24:51.689Z,69.40
2019-03-29T21:27:19.984Z,69.40
2019-03-29T21:29:48.486Z,69.70
2019-03-29T21:32:16.776Z,69.80
2019-03-29T21:34:45.035Z,69.80
2019-03-29T21:37:13.265Z,69.80
2019-03-29T21:39:41.521Z,70.30
2019-03-29T21:42:09.947Z,70.50
2019-03-29T21:44:38.264Z,70.80
2019-03-29T21:47:06.496Z,71.20
2019-03-29T21:49:34.727Z,71.10
2019-03-29T21:52:02.951Z,71.30
2019-03-29T21:54:31.212Z,71.20
2019-03-29T21:56:59.436Z,71.40
2019-03-29T21:59:27.719Z,71.40
2019-03-29T22:01:55.935Z,71.60
2019-03-29T22:04:24.184Z,71.70
2019-03-29T22:06:53.313Z,71.80
2019-03-29T22:09:21.523Z,72.00
2019-03-29T22:11:49.884Z,72.60
2019-03-29T22:14:18.172Z,73.30
2019-03-29T22:16:46.395Z,73.40
2019-03-29T22:19:14.896Z,73.50
2019-03-29T22:21:43.127Z,73.30
